Salina Municipal Airport
KSLN : now visible

Aeroporto :











RITROVATECI SU...

 
LOGIN :

Iscrizione | Disclaimer

   EN    FR    IT 

 









Sommario :    VFR   VFR Marginale   IFR   IFR Intensivo   IFR Molto Intensivo
Visibilità : 
Base nubi : 
>= 8 km
>= 3000ft
5 / 8 km
1000 / 3000 ft
1500m / 5 km
500 / 1000 ft
800 / 1500m
200 / 500 ft
< 800m
< 200 ft
Simboli :   Temporali  Nebbia  Neve Forte  Precipitazioni Forti  Vento > 20 kt






- Altitudine del aeroporto : 1288 ft
- Codice IATA : SLN


KSLN - Salina Municipal

ULTIMO METAR :
  • 200958Z AUTO 01014KT 7SM SCT013 OVC030 M07/M10 A3067 RMK AO2 T10721100

METARs OBSOLETI :
  • 200942Z AUTO 01011KT 6SM HZ BKN015 OVC031 M07/M09 A3067 RMK AO2 SNE26 P0000 T10671094
  • 200912Z AUTO 01013KT 4SM -SN BR BKN013 OVC033 M07/M09 A3067 RMK AO2 P0000 T10671089
  • 200903Z AUTO 02011KT 4SM -SN SCT013 OVC035 M07/M09 A3067 RMK AO2 P0000 T10671094
  • 200853Z AUTO 01015KT 3SM -SN FEW010 BKN015 OVC039 M06/M09 A3067 RMK AO2 SLP399 P0001 60001 T10611089 51013
  • 200836Z AUTO 01013KT 3SM -SN BR SCT012 OVC039 M06/M08 A3066 RMK AO2 P0001 T10611083
  • 200829Z AUTO 02015G21KT 3SM -SN SCT010 BKN014 OVC041 M06/M09 A3065 RMK AO2 P0001 T10611089
  • 200814Z AUTO 01015KT 2 1/2SM -SN BR BKN011 BKN014 OVC022 M06/M08 A3065 RMK AO2 P0001 T10561078
  • 200805Z AUTO 36013KT 2SM -SN BR SCT009 OVC022 M06/M08 A3065 RMK AO2 P0001 T10561078
  • 200753Z AUTO 02013KT 1 3/4SM -SN BR FEW010 OVC023 M06/M08 A3065 RMK AO2 SLP391 P0000 T10561078
  • 200738Z AUTO 01011KT 2SM -SN BR FEW009 OVC023 M06/M08 A3064 RMK AO2 P0000 T10561078
  • 200716Z AUTO 01012KT 1 1/2SM -SN BR FEW009 OVC017 M05/M07 A3064 RMK AO2 P0000 T10501072

TAF KSLN
Valido dal 20 a 07 ore il 21 a 06 ore UTC


200631Z 2007/2106 02014G20KT 3SM -SN SCT009 OVC015
TEMPO 2007/2008 1 1/2SM -SN OVC009
FM200900 02014KT P6SM VCSH SCT015 OVC025
FM201100 01011KT P6SM SCT030 BKN050
FM201300 36010KT P6SM SKC



MetMap, La meteo Aeronautica in un colpo d'occhio ! - Copyright ORBIFLY Dicembre 2007 - Disclaimer

ORBIFLY MET'MAP TEAM :

Programmazione e sviluppo : Alexandra Zaïnal
Concezione : Baudouin d'Aumeries
Aiuto per la programmazione : Marc-Olivier Méhu
Supporto tecnico e logistico : Manuel Goepfert
Aiuto per la traduzione : Arnaldo La Scala

Contatto : metmap@orbifly.com




FONTI E CREDITI :

   NOAA       Earth
Advisory